createdAt,value
2023-01-05T00:01:11.281Z,86.10
2023-01-05T00:03:38.523Z,86.10
2023-01-05T00:06:08.209Z,86.90
2023-01-05T00:08:37.732Z,86.20
2023-01-05T00:11:32.534Z,86.20
2023-01-05T00:14:20.855Z,86.20
2023-01-05T00:17:06.742Z,86.30
2023-01-05T00:19:52.214Z,86.20
2023-01-05T00:22:34.710Z,86.20
2023-01-05T00:25:09.218Z,86.20
2023-01-05T00:27:42.856Z,86.20
2023-01-05T00:30:15.393Z,86.20
2023-01-05T00:32:43.695Z,86.30
2023-01-05T00:35:12.221Z,86.30
2023-01-05T00:37:39.273Z,86.30
2023-01-05T00:40:08.438Z,86.40
2023-01-05T00:42:35.160Z,86.30
2023-01-05T00:45:01.909Z,86.40
2023-01-05T00:47:28.779Z,86.40
2023-01-05T00:49:55.610Z,86.50
2023-01-05T00:52:22.440Z,86.50
2023-01-05T00:54:49.340Z,86.60
2023-01-05T00:57:16.105Z,86.70
2023-01-05T00:59:43.083Z,86.80
2023-01-05T01:02:10.731Z,86.90
2023-01-05T01:04:37.825Z,86.80
2023-01-05T01:07:05.725Z,86.80
2023-01-05T01:09:33.839Z,86.90
2023-01-05T01:12:01.445Z,86.90
2023-01-05T01:14:28.427Z,86.90
2023-01-05T01:16:58.372Z,87.00
2023-01-05T01:19:26.622Z,87.00
2023-01-05T01:21:53.538Z,87.10
2023-01-05T01:24:23.494Z,87.10
2023-01-05T01:26:50.365Z,87.10
2023-01-05T01:29:18.699Z,87.10
2023-01-05T01:31:51.188Z,87.20
2023-01-05T01:34:17.919Z,87.30
2023-01-05T01:36:44.995Z,87.30
2023-01-05T01:39:22.246Z,87.30
2023-01-05T01:41:49.144Z,87.40
2023-01-05T01:44:50.054Z,87.40
2023-01-05T01:47:23.947Z,87.40
2023-01-05T01:49:52.121Z,87.40
2023-01-05T01:52:20.768Z,87.50
2023-01-05T01:54:48.199Z,87.50
2023-01-05T01:57:15.936Z,87.50
2023-01-05T01:59:43.042Z,87.60
2023-01-05T02:02:12.187Z,87.60
2023-01-05T02:04:42.153Z,87.60
2023-01-05T02:07:12.343Z,87.60
2023-01-05T02:09:39.358Z,87.80
2023-01-05T02:12:30.083Z,87.70
2023-01-05T02:15:05.470Z,87.60
2023-01-05T02:17:37.921Z,88.40
2023-01-05T02:20:46.764Z,87.60
2023-01-05T02:23:38.958Z,87.50
2023-01-05T02:26:05.610Z,87.50
2023-01-05T02:28:34.385Z,87.60
2023-01-05T02:31:10.432Z,87.60
2023-01-05T02:34:03.189Z,87.60
2023-01-05T02:36:54.110Z,87.60
2023-01-05T02:39:41.775Z,87.60
2023-01-05T02:42:22.632Z,87.60
2023-01-05T02:44:49.539Z,87.60
2023-01-05T02:47:25.196Z,87.50
2023-01-05T02:49:57.753Z,87.50
2023-01-05T02:52:26.164Z,87.60
2023-01-05T02:55:01.043Z,87.60
2023-01-05T02:57:51.165Z,87.60
2023-01-05T03:00:23.246Z,87.60
2023-01-05T03:03:02.362Z,87.70
2023-01-05T03:05:34.210Z,87.70
2023-01-05T03:08:17.872Z,87.80
2023-01-05T03:11:23.053Z,87.80
2023-01-05T03:14:16.087Z,87.80
2023-01-05T03:16:46.528Z,87.80
2023-01-05T03:19:35.479Z,87.90
2023-01-05T03:22:25.915Z,87.80
2023-01-05T03:25:11.592Z,87.80
2023-01-05T03:27:57.618Z,87.90
2023-01-05T03:30:55.208Z,87.90
2023-01-05T03:33:58.320Z,87.90
2023-01-05T03:36:29.802Z,87.90
2023-01-05T03:39:00.004Z,88.00
2023-01-05T03:41:27.909Z,88.10
2023-01-05T03:43:56.116Z,88.00
2023-01-05T03:46:23.183Z,88.00
2023-01-05T03:48:50.397Z,88.00
2023-01-05T03:51:17.568Z,88.00
2023-01-05T03:53:44.473Z,88.00
2023-01-05T03:56:11.375Z,88.00
2023-01-05T03:58:38.256Z,88.10
2023-01-05T04:01:05.565Z,88.00
2023-01-05T04:03:32.719Z,88.20
2023-01-05T04:06:00.168Z,88.10
2023-01-05T04:08:26.943Z,88.10
2023-01-05T04:10:53.885Z,88.10
2023-01-05T04:13:21.017Z,88.00
2023-01-05T04:15:50.237Z,88.00
2023-01-05T04:18:17.040Z,88.00
2023-01-05T04:20:43.772Z,88.00
2023-01-05T04:23:10.542Z,88.00
2023-01-05T04:25:37.372Z,88.00
2023-01-05T04:28:04.346Z,88.20
2023-01-05T04:30:33.881Z,88.10
2023-01-05T04:33:03.701Z,88.20
2023-01-05T04:35:30.519Z,88.10
2023-01-05T04:37:57.447Z,88.10
2023-01-05T04:40:24.296Z,88.10
2023-01-05T04:42:51.245Z,88.10
2023-01-05T04:45:18.009Z,88.10
2023-01-05T04:47:44.828Z,88.10
2023-01-05T04:50:11.942Z,88.10
2023-01-05T04:52:39.016Z,88.10
2023-01-05T04:55:06.345Z,88.20
2023-01-05T04:57:33.127Z,88.10
2023-01-05T05:00:00.155Z,88.10
2023-01-05T05:02:27.338Z,88.10
2023-01-05T05:04:54.317Z,88.10
2023-01-05T05:07:24.068Z,88.10
2023-01-05T05:09:50.976Z,88.20
2023-01-05T05:12:20.729Z,88.10
2023-01-05T05:14:48.464Z,88.10
2023-01-05T05:17:16.669Z,88.30
2023-01-05T05:19:43.698Z,88.30
2023-01-05T05:22:11.278Z,88.30
2023-01-05T05:24:38.108Z,88.40
2023-01-05T05:27:04.846Z,88.40
2023-01-05T05:29:31.692Z,88.40
2023-01-05T05:31:58.414Z,88.40
2023-01-05T05:34:25.264Z,88.40
2023-01-05T05:36:52.021Z,88.40
2023-01-05T05:39:18.901Z,88.40
2023-01-05T05:41:45.680Z,88.40
2023-01-05T05:44:12.426Z,88.40
2023-01-05T05:46:39.255Z,88.40
2023-01-05T05:49:09.423Z,88.50
2023-01-05T05:51:36.480Z,88.50
2023-01-05T05:54:03.400Z,88.50
2023-01-05T05:56:30.574Z,88.50
2023-01-05T05:59:01.236Z,88.50
2023-01-05T06:01:29.141Z,88.50
2023-01-05T06:03:56.220Z,88.50
2023-01-05T06:06:23.023Z,88.50
2023-01-05T06:08:49.782Z,88.50
2023-01-05T06:11:18.928Z,88.50
2023-01-05T06:13:45.965Z,88.60
2023-01-05T06:16:12.675Z,88.50
2023-01-05T06:18:42.483Z,88.50
2023-01-05T06:21:09.263Z,88.60
2023-01-05T06:23:36.068Z,88.50
2023-01-05T06:26:02.903Z,88.60
2023-01-05T06:28:29.607Z,88.60
2023-01-05T06:30:56.457Z,88.70
2023-01-05T06:33:23.215Z,88.70
2023-01-05T06:35:50.063Z,88.70
2023-01-05T06:38:17.725Z,88.70
2023-01-05T06:40:47.184Z,88.80
2023-01-05T06:43:13.971Z,88.80
2023-01-05T06:45:40.772Z,88.80
2023-01-05T06:48:07.741Z,88.80
2023-01-05T06:50:34.599Z,88.80
2023-01-05T06:53:01.389Z,88.80
2023-01-05T06:55:28.375Z,88.80
2023-01-05T06:58:00.501Z,88.80
2023-01-05T07:00:30.797Z,88.70
2023-01-05T07:02:57.716Z,88.70
2023-01-05T07:05:24.899Z,88.70
2023-01-05T07:07:51.759Z,88.80
2023-01-05T07:10:18.600Z,88.80
2023-01-05T07:12:45.481Z,88.80
2023-01-05T07:15:12.494Z,88.80
2023-01-05T07:17:39.269Z,88.80
2023-01-05T07:20:07.883Z,88.80
2023-01-05T07:22:34.798Z,88.80
2023-01-05T07:25:01.660Z,88.80
2023-01-05T07:27:28.411Z,88.90
2023-01-05T07:29:55.257Z,88.80
2023-01-05T07:32:21.992Z,88.80
2023-01-05T07:34:55.385Z,88.70
2023-01-05T07:37:25.802Z,88.80
2023-01-05T07:39:55.276Z,88.80
2023-01-05T07:42:22.138Z,88.80
2023-01-05T07:44:49.378Z,88.80
2023-01-05T07:47:16.073Z,88.70
2023-01-05T07:49:43.191Z,88.70
2023-01-05T07:52:10.341Z,88.70
2023-01-05T07:54:37.142Z,88.70
2023-01-05T07:57:04.001Z,88.80
2023-01-05T07:59:32.183Z,88.80
2023-01-05T08:01:59.032Z,88.60
2023-01-05T08:04:25.953Z,88.70
2023-01-05T08:06:52.936Z,88.70
2023-01-05T08:09:38.276Z,88.70
2023-01-05T08:12:05.554Z,88.70
2023-01-05T08:14:32.506Z,88.70
2023-01-05T08:16:59.261Z,88.70
2023-01-05T08:19:26.151Z,88.60
2023-01-05T08:21:52.899Z,88.60
2023-01-05T08:24:19.687Z,88.60
2023-01-05T08:26:49.274Z,88.70
2023-01-05T08:29:17.289Z,88.80
2023-01-05T08:31:44.061Z,88.70
2023-01-05T08:34:10.846Z,88.50
2023-01-05T08:36:37.869Z,88.50
2023-01-05T08:39:04.766Z,88.60
2023-01-05T08:41:35.751Z,88.50
2023-01-05T08:44:08.004Z,88.60
2023-01-05T08:46:38.482Z,88.60
2023-01-05T08:49:07.689Z,88.60
2023-01-05T08:51:34.589Z,88.70
2023-01-05T08:54:01.336Z,88.70
2023-01-05T08:56:31.814Z,88.60
2023-01-05T08:59:03.863Z,88.70
2023-01-05T09:01:31.582Z,89.40
2023-01-05T09:03:58.500Z,88.70
2023-01-05T09:06:25.356Z,88.60
2023-01-05T09:08:52.193Z,88.50
2023-01-05T09:11:23.949Z,88.40
2023-01-05T09:13:54.515Z,88.50
2023-01-05T09:19:11.124Z,88.40
2023-01-05T09:21:40.818Z,88.40
2023-01-05T09:24:08.656Z,88.40
2023-01-05T09:26:35.529Z,88.40
2023-01-05T09:29:02.255Z,88.40
2023-01-05T09:31:29.057Z,88.40
2023-01-05T09:33:57.997Z,88.40
2023-01-05T09:36:28.455Z,88.40
2023-01-05T09:38:57.109Z,88.40
2023-01-05T09:41:54.168Z,88.30
2023-01-05T09:44:26.498Z,88.30
2023-01-05T09:46:55.508Z,88.30
2023-01-05T09:49:27.343Z,88.30
2023-01-05T09:52:09.415Z,88.50
2023-01-05T09:54:37.627Z,88.50
2023-01-05T09:57:09.582Z,88.40
2023-01-05T09:59:45.991Z,88.40
2023-01-05T10:02:30.559Z,88.20
2023-01-05T10:04:59.729Z,88.20
2023-01-05T10:07:45.842Z,88.10
2023-01-05T10:11:09.776Z,88.00
2023-01-05T10:13:43.207Z,88.00
2023-01-05T10:16:16.466Z,87.90
2023-01-05T10:18:43.731Z,87.90
2023-01-05T10:21:45.969Z,87.80
2023-01-05T10:24:22.911Z,87.80
2023-01-05T10:27:24.697Z,87.70
2023-01-05T10:30:13.676Z,87.60
2023-01-05T10:36:07.398Z,87.90
2023-01-05T10:38:47.353Z,87.80
2023-01-05T10:41:19.039Z,87.70
2023-01-05T10:44:25.082Z,87.50
2023-01-05T10:46:52.871Z,87.60
2023-01-05T10:49:25.037Z,87.50
2023-01-05T10:51:56.573Z,87.60
2023-01-05T10:54:35.302Z,87.60
2023-01-05T10:57:41.165Z,87.40
2023-01-05T11:00:17.203Z,87.30
2023-01-05T11:03:00.657Z,87.10
2023-01-05T11:05:35.859Z,87.00
2023-01-05T11:08:06.254Z,86.90
2023-01-05T11:10:41.403Z,86.80
2023-01-05T11:13:32.758Z,86.60
2023-01-05T11:16:13.035Z,86.60
2023-01-05T11:18:53.435Z,86.50
2023-01-05T11:21:26.751Z,86.50
2023-01-05T11:23:58.858Z,86.40
2023-01-05T11:26:35.357Z,86.30
2023-01-05T11:29:20.398Z,86.20
2023-01-05T11:32:03.803Z,86.10
2023-01-05T11:34:53.006Z,86.00
2023-01-05T11:37:29.770Z,86.00
2023-01-05T11:40:04.922Z,86.10
2023-01-05T11:42:36.436Z,86.20
2023-01-05T11:45:24.456Z,86.10
2023-01-05T11:48:03.303Z,86.10
2023-01-05T11:50:54.732Z,86.20
2023-01-05T11:53:36.643Z,86.10
2023-01-05T11:56:22.122Z,86.10
2023-01-05T11:58:57.900Z,86.10
2023-01-05T12:01:40.005Z,85.80
2023-01-05T12:04:21.483Z,85.90
2023-01-05T12:07:00.534Z,85.80
2023-01-05T12:09:39.613Z,85.80
2023-01-05T12:12:15.121Z,85.50
2023-01-05T12:15:13.794Z,85.70
2023-01-05T12:17:54.409Z,85.50
2023-01-05T12:20:21.061Z,85.10
2023-01-05T12:23:17.590Z,84.90
2023-01-05T12:26:10.808Z,84.60
2023-01-05T12:35:39.452Z,84.90
2023-01-05T12:38:16.390Z,84.80
2023-01-05T12:40:56.365Z,84.80
2023-01-05T12:44:15.971Z,84.90
2023-01-05T12:47:04.535Z,84.70
2023-01-05T12:49:42.820Z,84.40
2023-01-05T12:52:33.475Z,84.30
2023-01-05T12:55:07.398Z,84.90
2023-01-05T12:57:41.821Z,84.20
2023-01-05T13:00:19.947Z,84.30
2023-01-05T13:02:54.167Z,84.20
2023-01-05T13:05:54.076Z,84.10
2023-01-05T13:08:29.457Z,84.10
2023-01-05T13:11:18.038Z,84.10
2023-01-05T13:13:46.647Z,84.00
2023-01-05T13:16:58.416Z,84.10
2023-01-05T13:19:32.380Z,84.10
2023-01-05T13:22:04.701Z,84.30
2023-01-05T13:24:53.245Z,84.30
2023-01-05T13:27:19.983Z,84.10
2023-01-05T13:29:52.394Z,84.20
2023-01-05T13:32:36.779Z,84.10
2023-01-05T13:35:25.407Z,84.10
2023-01-05T13:38:19.365Z,84.00
2023-01-05T13:41:03.656Z,84.00
2023-01-05T13:44:05.786Z,84.00
2023-01-05T13:46:54.844Z,83.90
2023-01-05T13:50:00.729Z,83.70
2023-01-05T13:53:08.883Z,83.80
2023-01-05T13:55:43.268Z,83.80
2023-01-05T13:58:23.903Z,83.70
2023-01-05T14:00:53.229Z,83.70
2023-01-05T14:03:28.657Z,83.70
2023-01-05T14:06:01.738Z,83.60
2023-01-05T14:08:28.406Z,83.60
2023-01-05T14:11:16.609Z,83.70
2023-01-05T14:14:00.784Z,83.60
2023-01-05T14:16:43.702Z,83.70
2023-01-05T14:19:42.234Z,83.60
2023-01-05T14:22:35.010Z,83.60
2023-01-05T14:25:38.747Z,83.60
2023-01-05T14:28:28.573Z,83.60
2023-01-05T14:31:21.680Z,83.70
2023-01-05T14:33:57.681Z,83.70
2023-01-05T14:36:44.373Z,83.70
2023-01-05T14:39:20.779Z,83.80
2023-01-05T14:42:00.036Z,84.10
2023-01-05T14:44:59.058Z,83.90
2023-01-05T14:47:47.481Z,84.10
2023-01-05T14:50:40.404Z,84.10
2023-01-05T14:53:10.203Z,84.20
2023-01-05T14:55:52.187Z,84.40
2023-01-05T14:58:36.953Z,84.10
2023-01-05T15:01:28.097Z,84.30
2023-01-05T15:04:05.268Z,84.30
2023-01-05T15:06:35.058Z,84.50
2023-01-05T15:09:23.571Z,84.30
2023-01-05T15:12:23.512Z,84.50
2023-01-05T15:15:10.959Z,84.50
2023-01-05T15:17:51.001Z,84.70
2023-01-05T15:20:55.129Z,84.90
2023-01-05T15:23:49.907Z,84.80
2023-01-05T15:26:30.455Z,84.80
2023-01-05T15:29:27.401Z,85.10
2023-01-05T15:31:59.005Z,85.00
2023-01-05T15:35:03.893Z,85.30
2023-01-05T15:37:34.525Z,85.20
2023-01-05T15:40:04.241Z,85.40
2023-01-05T15:42:37.975Z,85.40
2023-01-05T15:45:07.849Z,85.50
2023-01-05T15:47:39.651Z,85.60
2023-01-05T15:50:15.892Z,85.50
2023-01-05T15:52:55.718Z,85.60
2023-01-05T15:55:23.460Z,85.80
2023-01-05T15:57:53.336Z,85.80
2023-01-05T16:00:30.075Z,85.90
2023-01-05T16:02:57.396Z,86.00
2023-01-05T16:05:26.827Z,86.20
2023-01-05T16:08:03.513Z,86.30
2023-01-05T16:10:49.410Z,86.40
2023-01-05T16:13:47.696Z,86.40
2023-01-05T16:16:50.544Z,86.50
2023-01-05T16:19:35.127Z,86.70
2023-01-05T16:22:27.388Z,86.80
2023-01-05T16:24:54.313Z,87.00
2023-01-05T16:27:21.355Z,87.00
2023-01-05T16:29:49.156Z,87.20
2023-01-05T16:32:37.170Z,87.50
2023-01-05T16:35:35.396Z,87.50
2023-01-05T16:38:09.773Z,87.50
2023-01-05T16:40:56.242Z,87.70
2023-01-05T16:43:44.952Z,88.00
2023-01-05T16:46:20.210Z,88.10
2023-01-05T16:49:04.683Z,88.10
2023-01-05T16:51:37.208Z,88.20
2023-01-05T16:54:11.474Z,88.50
2023-01-05T16:56:38.143Z,88.50
2023-01-05T16:59:39.609Z,88.60
2023-01-05T17:02:39.842Z,88.80
2023-01-05T17:05:07.582Z,88.80
2023-01-05T17:07:39.066Z,89.00
2023-01-05T17:10:08.421Z,89.10
2023-01-05T17:12:35.376Z,89.30
2023-01-05T17:15:05.542Z,89.40
2023-01-05T17:17:32.309Z,89.50
2023-01-05T17:20:01.779Z,89.50
2023-01-05T17:22:28.935Z,89.70
2023-01-05T17:24:55.736Z,89.80
2023-01-05T17:27:22.578Z,90.00
2023-01-05T17:29:49.512Z,90.00
2023-01-05T17:32:19.350Z,90.00
2023-01-05T17:34:46.500Z,90.10
2023-01-05T17:37:17.173Z,90.50
2023-01-05T17:39:44.161Z,90.20
2023-01-05T17:42:29.438Z,90.20
2023-01-05T17:44:56.116Z,90.30
2023-01-05T17:47:22.850Z,90.30
2023-01-05T17:49:49.694Z,90.30
2023-01-05T17:52:16.535Z,90.40
2023-01-05T17:54:44.274Z,90.40
2023-01-05T17:57:13.428Z,90.50
2023-01-05T17:59:44.744Z,90.60
2023-01-05T18:02:11.602Z,90.60
2023-01-05T18:04:38.536Z,90.60
2023-01-05T18:07:05.422Z,90.70
2023-01-05T18:09:36.306Z,90.70
2023-01-05T18:12:03.044Z,90.80
2023-01-05T18:14:29.997Z,90.80
2023-01-05T18:17:59.282Z,90.90
2023-01-05T18:20:27.971Z,90.90
2023-01-05T18:22:55.825Z,90.90
2023-01-05T18:25:22.596Z,90.90
2023-01-05T18:27:49.519Z,90.90
2023-01-05T18:30:16.348Z,91.00
2023-01-05T18:32:43.315Z,91.00
2023-01-05T18:35:10.596Z,91.10
2023-01-05T18:37:40.989Z,91.10
2023-01-05T18:40:08.908Z,91.20
2023-01-05T18:42:37.182Z,91.20
2023-01-05T18:45:19.359Z,91.20
2023-01-05T18:47:55.875Z,91.30
2023-01-05T18:50:22.656Z,91.30
2023-01-05T18:52:49.572Z,91.30
2023-01-05T18:55:19.348Z,91.40
2023-01-05T18:57:46.053Z,91.40
2023-01-05T19:00:13.416Z,91.40
2023-01-05T19:02:40.659Z,91.40
2023-01-05T19:05:08.276Z,91.50
2023-01-05T19:07:34.965Z,91.50
2023-01-05T19:10:01.637Z,91.50
2023-01-05T19:12:30.507Z,91.50
2023-01-05T19:14:57.195Z,91.60
2023-01-05T19:17:26.734Z,91.60
2023-01-05T19:19:54.984Z,91.60
2023-01-05T19:22:21.817Z,91.70
2023-01-05T19:24:53.571Z,91.70
2023-01-05T19:27:21.723Z,91.70
2023-01-05T19:29:51.122Z,91.80
2023-01-05T19:32:18.007Z,91.80
2023-01-05T19:34:45.002Z,91.80
2023-01-05T19:37:14.244Z,91.80
2023-01-05T19:39:41.173Z,91.80
2023-01-05T19:42:08.027Z,91.80
2023-01-05T19:44:34.775Z,91.90
2023-01-05T19:47:01.647Z,91.90
2023-01-05T19:49:28.764Z,91.90
2023-01-05T19:51:55.676Z,91.80
2023-01-05T19:54:23.909Z,91.80
2023-01-05T19:56:54.767Z,91.80
2023-01-05T19:59:32.979Z,91.80
2023-01-05T20:02:04.436Z,91.80
2023-01-05T20:04:31.787Z,91.70
2023-01-05T20:06:58.911Z,91.90
2023-01-05T20:09:28.569Z,91.70
2023-01-05T20:12:05.714Z,91.60
2023-01-05T20:14:39.939Z,91.50
2023-01-05T20:17:08.601Z,91.40
2023-01-05T20:19:36.892Z,91.40
2023-01-05T20:22:05.530Z,91.70
2023-01-05T20:24:33.948Z,91.30
2023-01-05T20:27:04.493Z,91.30
2023-01-05T20:29:35.019Z,91.30
2023-01-05T20:32:06.725Z,91.20
2023-01-05T20:34:37.012Z,91.10
2023-01-05T20:37:08.890Z,91.10
2023-01-05T20:39:37.379Z,91.10
2023-01-05T20:42:05.026Z,91.10
2023-01-05T20:44:35.273Z,91.10
2023-01-05T20:47:03.379Z,91.10
2023-01-05T20:49:30.168Z,91.10
2023-01-05T20:51:56.903Z,91.10
2023-01-05T20:54:23.767Z,91.00
2023-01-05T20:56:50.718Z,91.10
2023-01-05T20:59:20.006Z,91.10
2023-01-05T21:01:47.293Z,91.10
2023-01-05T21:04:17.274Z,91.10
2023-01-05T21:06:44.254Z,91.10
2023-01-05T21:09:14.082Z,91.10
2023-01-05T21:11:41.800Z,91.20
2023-01-05T21:14:11.397Z,91.20
2023-01-05T21:16:50.222Z,91.30
2023-01-05T21:19:21.746Z,91.30
2023-01-05T21:21:54.357Z,91.30
2023-01-05T21:24:21.936Z,91.30
2023-01-05T21:26:48.817Z,91.30
2023-01-05T21:29:17.504Z,91.30
2023-01-05T21:31:44.350Z,91.30
2023-01-05T21:34:11.865Z,91.30
2023-01-05T21:36:41.408Z,91.30
2023-01-05T21:39:09.228Z,91.30
2023-01-05T21:42:00.001Z,91.30
2023-01-05T21:44:26.943Z,91.30
2023-01-05T21:46:53.729Z,91.30
2023-01-05T21:49:20.822Z,91.30
2023-01-05T21:52:06.462Z,91.30
2023-01-05T21:54:53.210Z,91.30
2023-01-05T21:57:19.928Z,91.30
2023-01-05T21:59:46.693Z,91.20
2023-01-05T22:02:14.449Z,91.20
2023-01-05T22:04:42.712Z,91.20
2023-01-05T22:07:09.694Z,91.20
2023-01-05T22:09:37.525Z,91.20
2023-01-05T22:12:08.738Z,91.20
2023-01-05T22:14:39.149Z,91.20
2023-01-05T22:17:10.227Z,91.20
2023-01-05T22:19:37.101Z,91.20
2023-01-05T22:22:04.312Z,91.20
2023-01-05T22:24:31.133Z,91.10
2023-01-05T22:27:00.482Z,91.10
2023-01-05T22:29:27.549Z,91.10
2023-01-05T22:31:54.495Z,91.10
2023-01-05T22:34:21.368Z,91.10
2023-01-05T22:36:49.063Z,91.40
2023-01-05T22:39:16.350Z,91.10
2023-01-05T22:41:46.526Z,91.00
2023-01-05T22:44:13.307Z,91.00
2023-01-05T22:46:40.086Z,90.90
2023-01-05T22:49:06.810Z,90.90
2023-01-05T22:51:37.696Z,90.90
2023-01-05T22:54:05.023Z,90.90
2023-01-05T22:56:33.383Z,90.90
2023-01-05T22:59:01.401Z,90.80
2023-01-05T23:01:43.242Z,90.80
2023-01-05T23:04:13.739Z,90.80
2023-01-05T23:06:43.927Z,90.80
2023-01-05T23:09:13.799Z,90.80
2023-01-05T23:11:42.112Z,90.80
2023-01-05T23:14:10.964Z,90.70
2023-01-05T23:16:38.280Z,90.70
2023-01-05T23:19:06.537Z,90.70
2023-01-05T23:21:36.817Z,90.70
2023-01-05T23:24:04.384Z,90.70
2023-01-05T23:26:31.672Z,90.70
2023-01-05T23:28:58.919Z,90.70
2023-01-05T23:31:26.003Z,90.70
2023-01-05T23:33:53.234Z,90.70
2023-01-05T23:36:21.488Z,90.70
2023-01-05T23:38:48.554Z,90.70
2023-01-05T23:41:16.697Z,90.80
2023-01-05T23:43:45.125Z,90.80
2023-01-05T23:46:19.279Z,90.80
2023-01-05T23:48:46.293Z,91.20
2023-01-05T23:51:14.195Z,90.80
2023-01-05T23:53:43.357Z,90.90
2023-01-05T23:56:19.278Z,90.80
2023-01-05T23:58:46.464Z,90.80
